Miami International Airport Miami US
ICAO: KMIA
IATA: MIA
Category: Large
Scheduled Services: Yes

Elevation: 8 ft
TransAlt. 18000 ft.

Airport Communications:
APP:120.5
ATIS:119.15
CLNC DEL:120.35
DEP:119.45
GND:121.8
TWR:118.3
UNICOM:123

KMIA Zoom In..

If you have problems with the map follow the link
https://www.worldairports.se/pages/airport.php?
ICAO=KMIA

Runways:

(A) RW 08L length 8600 ft width 150 ft
LOC 109.30 / hdg 92

(B) RW 08R length 10506 ft width 200 ft
ILS 110.30 / hdg 92

(C) RW 09 length 13016 ft width 150 ft
ILS 110.90 / hdg 92

(D) RW 12 length 9355 ft width 150 ft
ILS 108.90 / hdg 124

(E) RW 26L length 10506 ft width 200 ft
ILS 109.10 / hdg 272

(F) RW 26R length 8600 ft width 150 ft
LOC 109.30 / hdg 272

(G) RW 27 length 13016 ft width 150 ft
ILS 109.50 / hdg 272

(H) RW 30 length 9355 ft width 150 ft
ILS 111.70 / hdg 304

Location; KMIA
Day. 14 / Time. 17.53 Zulu
* Altimeter: 29.84
* Temperature: 30° c. 86°f.
* Wind from: 240° Speed 17 kn with Gusts up to 23 kn.
Dewpoint: 19° c.
Visibility: 10 Statute Miles.
Clouds: Few 2000 ft.
Clouds: Broken 3500 ft.
Clouds: Broken 25000 ft.

KMIA 141753Z 24017G23KT 10SM FEW020 BKN035 BKN250 30/19 A2984 RMK AO2 SLP106 T03000194 10306 20217 58014 $


Wind From 240°
Speed 17 kn.

 
 
jpsmedia worldairports.se 2019   terms of use